Hauptseite
METAR-TAF:

METAR-TAF

Flughäfen :

Militärflugplatz Volkel

Uden, Niederlande

Breite: 51-39N, Länge: 005-42E, Höhe: 22 m

Beobachtung

Neuester Wetterbericht von vor 38 Minuten, um 06:25 UTC
Wind 3 kt aus Südost, variierte zwischen Ost/Südost und Süd
Temperatur 7°C
Luftfeuchtigkeit 93%
Luftdruck 1018 hPa
Sichtweite: 9000 m
feuchter Dunst

METAR: EHVK 280625Z AUTO 13003KT 110V170 9000 BR NCD 07/06 Q1018 BLU NOSIG

Zeit: 09:03 (07:03 UTC)

Prognose

Neuester Wetterbericht von vor 2 Stunden und 34 Minuten, um 04:29 UTC
Gültige Prognose vom 28 um 05 UTC bis 28 um 17 UTC
Wind 7 kt aus Süd
Sichtweite: 8000 m
Zeitweise
vom 28 um 10 UTC bis 28 um 15 UTC
Wind 10 kt aus Süd

TAF: EHVK 280429Z 2805/2817 17007KT 8000 NSC TEMPO 2810/2815 19010KT

Wetterbeobachtungen und Prognosen von mehr als 4000 Flughäfen (METAR und TAF Bericht).

Die verfügbaren Stationen werden durch gelbe und rote Markierungen auf der Karte dargestellt.

Führen Sie die Maus auf sie, um den Namen der Station zu sehen.

Darauf klicken, um die Beobachtung von Wetterbeobachtungen und Prognosen zu sehen.

Um die Karte zu ändern : klicken Sie auf den grünen Tasten mit einem schwarzen Kreuz Zum Vergrößern, auf den grünen Button mit einem Gedankenstrich zu verkleinern, oder auf die grünen Pfeile für benachbarte Karten.


METAR-TAF: